sensor_id;sensor_type;location;lat;lon;timestamp;pressure;altitude;pressure_sealevel;temperature;humidity
54022;BME280;39936;51.058;17.220;2023-08-06T00:03:02;100548.65;;;14.65;100.00
54022;BME280;39936;51.058;17.220;2023-08-06T00:07:22;100547.25;;;14.65;100.00
54022;BME280;39936;51.058;17.220;2023-08-06T00:11:07;100541.23;;;14.60;100.00
54022;BME280;39936;51.058;17.220;2023-08-06T00:14:42;100549.28;;;14.63;100.00
54022;BME280;39936;51.058;17.220;2023-08-06T00:18:00;100542.36;;;14.64;100.00
54022;BME280;39936;51.058;17.220;2023-08-06T00:21:38;100529.64;;;14.65;100.00
54022;BME280;39936;51.058;17.220;2023-08-06T00:24:52;100518.35;;;14.63;100.00
54022;BME280;39936;51.058;17.220;2023-08-06T00:28:30;100511.41;;;14.62;100.00
54022;BME280;39936;51.058;17.220;2023-08-06T00:32:27;100515.55;;;14.66;100.00
54022;BME280;39936;51.058;17.220;2023-08-06T00:36:24;100507.06;;;14.65;100.00
54022;BME280;39936;51.058;17.220;2023-08-06T00:40:15;100502.65;;;14.67;100.00
54022;BME280;39936;51.058;17.220;2023-08-06T00:44:27;100488.93;;;14.68;100.00
54022;BME280;39936;51.058;17.220;2023-08-06T00:48:46;100467.89;;;14.66;100.00
54022;BME280;39936;51.058;17.220;2023-08-06T00:52:27;100453.79;;;14.68;100.00
54022;BME280;39936;51.058;17.220;2023-08-06T00:56:01;100439.88;;;14.66;100.00
54022;BME280;39936;51.058;17.220;2023-08-06T00:59:27;100397.31;;;14.46;100.00
54022;BME280;39936;51.058;17.220;2023-08-06T01:03:27;100425.73;;;14.67;100.00
54022;BME280;39936;51.058;17.220;2023-08-06T01:11:05;100400.70;;;14.70;100.00
54022;BME280;39936;51.058;17.220;2023-08-06T01:14:54;100395.45;;;14.67;100.00
54022;BME280;39936;51.058;17.220;2023-08-06T01:19:16;100396.17;;;14.68;100.00
54022;BME280;39936;51.058;17.220;2023-08-06T01:22:55;100379.95;;;14.61;100.00
54022;BME280;39936;51.058;17.220;2023-08-06T01:30:39;100372.13;;;14.67;100.00
54022;BME280;39936;51.058;17.220;2023-08-06T01:33:54;100341.39;;;14.68;100.00
54022;BME280;39936;51.058;17.220;2023-08-06T01:38:01;100343.74;;;14.67;100.00
54022;BME280;39936;51.058;17.220;2023-08-06T01:41:50;100329.57;;;14.65;100.00
54022;BME280;39936;51.058;17.220;2023-08-06T01:45:11;100320.94;;;14.66;100.00
54022;BME280;39936;51.058;17.220;2023-08-06T01:48:52;100321.57;;;14.63;100.00
54022;BME280;39936;51.058;17.220;2023-08-06T01:52:39;100322.55;;;14.62;100.00
54022;BME280;39936;51.058;17.220;2023-08-06T01:56:16;100304.66;;;14.61;100.00
54022;BME280;39936;51.058;17.220;2023-08-06T01:59:37;100301.77;;;14.57;100.00
54022;BME280;39936;51.058;17.220;2023-08-06T02:03:20;100266.07;;;14.33;100.00
54022;BME280;39936;51.058;17.220;2023-08-06T02:06:59;100279.55;;;14.45;100.00
54022;BME280;39936;51.058;17.220;2023-08-06T02:10:40;100274.42;;;14.39;100.00
54022;BME280;39936;51.058;17.220;2023-08-06T02:14:24;100281.79;;;14.41;100.00
54022;BME280;39936;51.058;17.220;2023-08-06T02:17:53;100271.46;;;14.35;100.00
54022;BME280;39936;51.058;17.220;2023-08-06T02:21:46;100266.98;;;14.31;100.00
54022;BME280;39936;51.058;17.220;2023-08-06T02:25:19;100245.54;;;14.27;100.00
54022;BME280;39936;51.058;17.220;2023-08-06T02:29:01;100218.72;;;14.23;100.00
54022;BME280;39936;51.058;17.220;2023-08-06T02:32:26;100208.78;;;14.19;100.00
54022;BME280;39936;51.058;17.220;2023-08-06T02:36:01;100200.24;;;14.14;100.00
54022;BME280;39936;51.058;17.220;2023-08-06T02:39:40;100189.78;;;14.12;100.00
54022;BME280;39936;51.058;17.220;2023-08-06T02:43:14;100198.68;;;14.09;100.00
54022;BME280;39936;51.058;17.220;2023-08-06T02:47:01;100199.13;;;14.07;100.00
54022;BME280;39936;51.058;17.220;2023-08-06T02:50:40;100206.25;;;14.06;100.00
54022;BME280;39936;51.058;17.220;2023-08-06T02:54:46;100202.82;;;14.04;100.00
54022;BME280;39936;51.058;17.220;2023-08-06T02:58:05;100198.83;;;14.00;100.00
54022;BME280;39936;51.058;17.220;2023-08-06T03:01:50;100184.21;;;13.99;100.00
54022;BME280;39936;51.058;17.220;2023-08-06T03:05:55;100186.98;;;13.98;100.00
54022;BME280;39936;51.058;17.220;2023-08-06T03:09:32;100193.32;;;13.97;100.00
54022;BME280;39936;51.058;17.220;2023-08-06T03:13:04;100195.59;;;13.97;100.00
54022;BME280;39936;51.058;17.220;2023-08-06T03:16:23;100203.86;;;13.96;100.00
54022;BME280;39936;51.058;17.220;2023-08-06T03:20:20;100197.92;;;13.95;100.00
54022;BME280;39936;51.058;17.220;2023-08-06T03:24:22;100192.43;;;13.95;100.00
54022;BME280;39936;51.058;17.220;2023-08-06T03:28:26;100166.73;;;13.81;100.00
54022;BME280;39936;51.058;17.220;2023-08-06T03:31:51;100177.17;;;13.89;100.00
54022;BME280;39936;51.058;17.220;2023-08-06T03:39:26;100180.47;;;13.87;100.00
54022;BME280;39936;51.058;17.220;2023-08-06T03:43:29;100174.03;;;13.83;100.00
54022;BME280;39936;51.058;17.220;2023-08-06T03:47:25;100172.16;;;13.82;100.00
54022;BME280;39936;51.058;17.220;2023-08-06T03:50:46;100179.79;;;13.80;100.00
54022;BME280;39936;51.058;17.220;2023-08-06T03:54:58;100185.42;;;13.79;100.00
54022;BME280;39936;51.058;17.220;2023-08-06T03:58:15;100182.23;;;13.77;100.00
54022;BME280;39936;51.058;17.220;2023-08-06T04:01:51;100182.29;;;13.77;100.00
54022;BME280;39936;51.058;17.220;2023-08-06T04:05:32;100188.52;;;13.74;100.00
54022;BME280;39936;51.058;17.220;2023-08-06T04:08:54;100195.20;;;13.73;100.00
54022;BME280;39936;51.058;17.220;2023-08-06T04:12:41;100192.53;;;13.72;100.00
54022;BME280;39936;51.058;17.220;2023-08-06T04:20:29;100188.32;;;13.68;100.00
54022;BME280;39936;51.058;17.220;2023-08-06T04:24:23;100184.38;;;13.65;100.00
54022;BME280;39936;51.058;17.220;2023-08-06T04:27:57;100184.73;;;13.62;100.00
54022;BME280;39936;51.058;17.220;2023-08-06T04:31:16;100168.23;;;13.59;100.00
54022;BME280;39936;51.058;17.220;2023-08-06T04:35:03;100159.97;;;13.59;100.00
54022;BME280;39936;51.058;17.220;2023-08-06T04:38:26;100149.96;;;13.58;100.00
54022;BME280;39936;51.058;17.220;2023-08-06T04:42:08;100113.74;;;13.37;100.00
54022;BME280;39936;51.058;17.220;2023-08-06T04:45:31;100136.94;;;13.56;100.00
54022;BME280;39936;51.058;17.220;2023-08-06T04:49:07;100137.39;;;13.55;100.00
54022;BME280;39936;51.058;17.220;2023-08-06T04:52:37;100138.43;;;13.54;100.00
54022;BME280;39936;51.058;17.220;2023-08-06T04:56:42;100134.48;;;13.55;100.00
54022;BME280;39936;51.058;17.220;2023-08-06T05:00:13;100140.77;;;13.54;100.00
54022;BME280;39936;51.058;17.220;2023-08-06T05:03:55;100140.67;;;13.55;100.00
54022;BME280;39936;51.058;17.220;2023-08-06T05:11:31;100121.89;;;13.54;100.00
54022;BME280;39936;51.058;17.220;2023-08-06T05:15:13;100124.95;;;13.54;100.00
54022;BME280;39936;51.058;17.220;2023-08-06T05:22:43;100110.71;;;13.50;100.00
54022;BME280;39936;51.058;17.220;2023-08-06T05:26:30;100119.68;;;13.53;100.00
54022;BME280;39936;51.058;17.220;2023-08-06T05:29:49;100127.48;;;13.53;100.00
54022;BME280;39936;51.058;17.220;2023-08-06T05:33:53;100118.91;;;13.52;100.00
54022;BME280;39936;51.058;17.220;2023-08-06T05:37:39;100108.77;;;13.53;100.00
54022;BME280;39936;51.058;17.220;2023-08-06T05:41:35;100116.84;;;13.52;100.00
54022;BME280;39936;51.058;17.220;2023-08-06T05:45:18;100053.67;;;13.32;100.00
54022;BME280;39936;51.058;17.220;2023-08-06T05:52:36;100115.19;;;13.51;100.00
54022;BME280;39936;51.058;17.220;2023-08-06T05:56:22;100103.04;;;13.51;100.00
54022;BME280;39936;51.058;17.220;2023-08-06T05:59:44;100105.47;;;13.51;100.00
54022;BME280;39936;51.058;17.220;2023-08-06T06:03:03;100097.83;;;13.47;100.00
54022;BME280;39936;51.058;17.220;2023-08-06T06:06:42;100103.81;;;13.49;100.00
54022;BME280;39936;51.058;17.220;2023-08-06T06:10:54;100130.80;;;13.50;100.00
54022;BME280;39936;51.058;17.220;2023-08-06T06:14:56;100140.73;;;13.49;100.00
54022;BME280;39936;51.058;17.220;2023-08-06T06:18:08;100136.54;;;13.55;100.00
54022;BME280;39936;51.058;17.220;2023-08-06T06:21:55;100114.80;;;13.52;100.00
54022;BME280;39936;51.058;17.220;2023-08-06T06:30:13;100096.80;;;13.44;100.00
54022;BME280;39936;51.058;17.220;2023-08-06T06:33:52;100099.84;;;13.44;100.00
54022;BME280;39936;51.058;17.220;2023-08-06T06:37:54;100100.23;;;13.44;100.00
54022;BME280;39936;51.058;17.220;2023-08-06T06:45:27;100092.06;;;13.47;100.00
54022;BME280;39936;51.058;17.220;2023-08-06T06:48:51;100098.02;;;13.48;100.00
54022;BME280;39936;51.058;17.220;2023-08-06T06:52:14;100093.53;;;13.45;100.00
54022;BME280;39936;51.058;17.220;2023-08-06T06:56:04;100094.79;;;13.52;100.00
54022;BME280;39936;51.058;17.220;2023-08-06T06:59:47;100086.73;;;13.54;100.00
54022;BME280;39936;51.058;17.220;2023-08-06T07:03:37;100058.28;;;13.40;100.00
54022;BME280;39936;51.058;17.220;2023-08-06T07:07:46;100072.54;;;13.57;100.00
54022;BME280;39936;51.058;17.220;2023-08-06T07:11:41;100068.52;;;13.57;100.00
54022;BME280;39936;51.058;17.220;2023-08-06T07:15:25;100070.55;;;13.60;100.00
54022;BME280;39936;51.058;17.220;2023-08-06T07:19:00;100066.72;;;13.62;100.00
54022;BME280;39936;51.058;17.220;2023-08-06T07:22:46;100078.62;;;13.64;100.00
54022;BME280;39936;51.058;17.220;2023-08-06T07:26:00;100079.69;;;13.63;100.00
54022;BME280;39936;51.058;17.220;2023-08-06T07:34:04;100037.07;;;13.42;100.00
54022;BME280;39936;51.058;17.220;2023-08-06T07:38:01;100050.83;;;13.57;100.00
54022;BME280;39936;51.058;17.220;2023-08-06T07:42:07;100060.55;;;13.63;100.00
54022;BME280;39936;51.058;17.220;2023-08-06T07:46:15;100061.40;;;13.62;100.00
54022;BME280;39936;51.058;17.220;2023-08-06T07:49:42;100023.34;;;13.49;100.00
54022;BME280;39936;51.058;17.220;2023-08-06T07:53:39;100046.06;;;13.65;100.00
54022;BME280;39936;51.058;17.220;2023-08-06T07:57:18;100031.17;;;13.61;100.00
54022;BME280;39936;51.058;17.220;2023-08-06T08:00:41;100031.12;;;13.66;100.00
54022;BME280;39936;51.058;17.220;2023-08-06T08:04:23;100013.34;;;13.65;100.00
54022;BME280;39936;51.058;17.220;2023-08-06T08:08:40;100003.16;;;13.68;100.00
54022;BME280;39936;51.058;17.220;2023-08-06T08:12:52;99970.45;;;13.60;100.00
54022;BME280;39936;51.058;17.220;2023-08-06T08:16:59;99974.84;;;13.72;100.00
54022;BME280;39936;51.058;17.220;2023-08-06T08:21:04;99971.11;;;13.78;100.00
54022;BME280;39936;51.058;17.220;2023-08-06T08:24:24;99984.09;;;13.81;100.00
54022;BME280;39936;51.058;17.220;2023-08-06T08:27:57;99967.48;;;13.62;100.00
54022;BME280;39936;51.058;17.220;2023-08-06T08:31:44;100008.61;;;13.88;100.00
54022;BME280;39936;51.058;17.220;2023-08-06T08:35:51;99998.25;;;13.95;100.00
54022;BME280;39936;51.058;17.220;2023-08-06T08:43:22;99985.50;;;13.94;100.00
54022;BME280;39936;51.058;17.220;2023-08-06T08:47:13;99982.43;;;13.98;100.00
54022;BME280;39936;51.058;17.220;2023-08-06T08:50:38;99974.24;;;13.99;100.00
54022;BME280;39936;51.058;17.220;2023-08-06T08:54:23;99972.22;;;14.02;100.00
54022;BME280;39936;51.058;17.220;2023-08-06T08:58:06;99965.98;;;14.05;100.00
54022;BME280;39936;51.058;17.220;2023-08-06T09:01:33;99961.47;;;14.04;100.00
54022;BME280;39936;51.058;17.220;2023-08-06T09:05:54;99959.72;;;14.05;100.00
54022;BME280;39936;51.058;17.220;2023-08-06T09:10:03;99933.84;;;13.87;100.00
54022;BME280;39936;51.058;17.220;2023-08-06T09:13:56;99965.73;;;14.10;100.00
54022;BME280;39936;51.058;17.220;2023-08-06T09:17:54;99962.77;;;14.09;100.00
54022;BME280;39936;51.058;17.220;2023-08-06T09:21:38;99965.69;;;14.08;100.00
54022;BME280;39936;51.058;17.220;2023-08-06T09:25:23;99967.66;;;14.10;100.00
54022;BME280;39936;51.058;17.220;2023-08-06T09:28:52;99963.89;;;14.14;100.00
54022;BME280;39936;51.058;17.220;2023-08-06T09:37:10;99978.59;;;14.10;100.00
54022;BME280;39936;51.058;17.220;2023-08-06T09:41:33;99971.41;;;14.05;100.00
54022;BME280;39936;51.058;17.220;2023-08-06T09:44:53;99977.60;;;14.03;100.00
54022;BME280;39936;51.058;17.220;2023-08-06T09:48:39;99959.76;;;13.87;100.00
54022;BME280;39936;51.058;17.220;2023-08-06T09:52:47;99989.98;;;14.06;100.00
54022;BME280;39936;51.058;17.220;2023-08-06T09:56:43;99982.11;;;14.06;100.00
54022;BME280;39936;51.058;17.220;2023-08-06T10:00:23;99976.91;;;14.04;100.00
54022;BME280;39936;51.058;17.220;2023-08-06T10:04:05;99976.45;;;14.04;100.00
54022;BME280;39936;51.058;17.220;2023-08-06T10:07:57;99968.96;;;14.04;100.00
54022;BME280;39936;51.058;17.220;2023-08-06T10:11:23;99959.56;;;14.07;100.00
54022;BME280;39936;51.058;17.220;2023-08-06T10:15:26;99941.45;;;14.09;100.00
54022;BME280;39936;51.058;17.220;2023-08-06T10:19:29;99920.97;;;14.07;100.00
54022;BME280;39936;51.058;17.220;2023-08-06T10:23:05;99919.74;;;14.08;100.00
54022;BME280;39936;51.058;17.220;2023-08-06T10:26:30;99902.16;;;14.09;100.00
54022;BME280;39936;51.058;17.220;2023-08-06T10:30:32;99891.22;;;14.10;100.00
54022;BME280;39936;51.058;17.220;2023-08-06T10:34:17;99889.20;;;14.10;100.00
54022;BME280;39936;51.058;17.220;2023-08-06T10:38:27;99883.29;;;14.14;100.00
54022;BME280;39936;51.058;17.220;2023-08-06T10:42:33;99880.34;;;14.14;100.00
54022;BME280;39936;51.058;17.220;2023-08-06T10:46:28;99887.10;;;14.17;100.00
54022;BME280;39936;51.058;17.220;2023-08-06T10:50:33;99867.50;;;14.13;100.00
54022;BME280;39936;51.058;17.220;2023-08-06T10:54:20;99878.63;;;14.29;100.00
54022;BME280;39936;51.058;17.220;2023-08-06T10:58:36;99867.99;;;14.33;100.00
54022;BME280;39936;51.058;17.220;2023-08-06T11:02:19;99876.97;;;14.39;100.00
54022;BME280;39936;51.058;17.220;2023-08-06T11:06:04;99874.05;;;14.41;100.00
54022;BME280;39936;51.058;17.220;2023-08-06T11:10:34;99878.94;;;14.46;100.00
54022;BME280;39936;51.058;17.220;2023-08-06T11:13:57;99877.60;;;14.52;100.00
54022;BME280;39936;51.058;17.220;2023-08-06T11:17:41;99881.85;;;14.52;100.00
54022;BME280;39936;51.058;17.220;2023-08-06T11:21:06;99873.70;;;14.38;100.00
54022;BME280;39936;51.058;17.220;2023-08-06T11:24:41;99881.44;;;14.41;100.00
54022;BME280;39936;51.058;17.220;2023-08-06T11:28:12;99870.96;;;14.38;100.00
54022;BME280;39936;51.058;17.220;2023-08-06T11:32:06;99876.38;;;14.43;100.00
54022;BME280;39936;51.058;17.220;2023-08-06T11:36:04;99868.96;;;14.53;100.00
54022;BME280;39936;51.058;17.220;2023-08-06T11:39:28;99881.68;;;14.53;100.00
54022;BME280;39936;51.058;17.220;2023-08-06T11:42:51;99882.29;;;14.56;100.00
54022;BME280;39936;51.058;17.220;2023-08-06T11:53:40;99896.89;;;14.55;100.00
54022;BME280;39936;51.058;17.220;2023-08-06T11:57:37;99889.28;;;14.48;100.00
54022;BME280;39936;51.058;17.220;2023-08-06T12:01:19;99894.20;;;14.46;100.00
54022;BME280;39936;51.058;17.220;2023-08-06T12:08:54;99909.93;;;14.46;100.00
54022;BME280;39936;51.058;17.220;2023-08-06T12:12:48;99912.13;;;14.46;100.00
54022;BME280;39936;51.058;17.220;2023-08-06T12:16:35;99910.06;;;14.44;100.00
54022;BME280;39936;51.058;17.220;2023-08-06T12:24:18;99927.45;;;14.52;100.00
54022;BME280;39936;51.058;17.220;2023-08-06T12:27:45;99927.78;;;14.50;100.00
54022;BME280;39936;51.058;17.220;2023-08-06T12:32:03;99931.52;;;14.47;100.00
54022;BME280;39936;51.058;17.220;2023-08-06T12:35:35;99937.95;;;14.48;100.00
54022;BME280;39936;51.058;17.220;2023-08-06T12:40:02;99939.17;;;14.47;100.00
54022;BME280;39936;51.058;17.220;2023-08-06T12:43:20;99947.09;;;14.49;100.00
54022;BME280;39936;51.058;17.220;2023-08-06T12:46:38;99938.81;;;14.47;100.00
54022;BME280;39936;51.058;17.220;2023-08-06T12:50:16;99948.41;;;14.55;100.00
54022;BME280;39936;51.058;17.220;2023-08-06T12:53:35;99947.19;;;14.54;100.00
54022;BME280;39936;51.058;17.220;2023-08-06T12:57:36;99948.42;;;14.57;100.00
54022;BME280;39936;51.058;17.220;2023-08-06T13:01:26;99953.60;;;14.58;100.00
54022;BME280;39936;51.058;17.220;2023-08-06T13:09:23;99961.78;;;14.56;100.00
54022;BME280;39936;51.058;17.220;2023-08-06T13:13:02;99970.37;;;14.63;100.00
54022;BME280;39936;51.058;17.220;2023-08-06T13:16:21;99976.32;;;14.63;100.00
54022;BME280;39936;51.058;17.220;2023-08-06T13:23:54;99973.54;;;14.64;100.00
54022;BME280;39936;51.058;17.220;2023-08-06T13:27:19;99974.19;;;14.64;100.00
54022;BME280;39936;51.058;17.220;2023-08-06T13:30:54;99982.25;;;14.59;100.00
54022;BME280;39936;51.058;17.220;2023-08-06T13:34:36;99958.64;;;14.38;100.00
54022;BME280;39936;51.058;17.220;2023-08-06T13:38:23;99988.11;;;14.53;100.00
54022;BME280;39936;51.058;17.220;2023-08-06T13:42:10;99996.52;;;14.58;100.00
54022;BME280;39936;51.058;17.220;2023-08-06T13:45:32;99998.51;;;14.56;100.00
54022;BME280;39936;51.058;17.220;2023-08-06T13:49:10;100008.86;;;14.63;100.00
54022;BME280;39936;51.058;17.220;2023-08-06T13:52:46;100009.35;;;14.63;100.00
54022;BME280;39936;51.058;17.220;2023-08-06T13:56:10;100010.11;;;14.66;100.00
54022;BME280;39936;51.058;17.220;2023-08-06T13:59:33;100017.44;;;14.67;100.00
54022;BME280;39936;51.058;17.220;2023-08-06T14:03:08;100016.30;;;14.66;100.00
54022;BME280;39936;51.058;17.220;2023-08-06T14:06:41;100016.74;;;14.66;100.00
54022;BME280;39936;51.058;17.220;2023-08-06T14:10:36;100019.14;;;14.66;100.00
54022;BME280;39936;51.058;17.220;2023-08-06T14:13:55;100020.98;;;14.66;100.00
54022;BME280;39936;51.058;17.220;2023-08-06T14:18:09;100020.78;;;14.64;100.00
54022;BME280;39936;51.058;17.220;2023-08-06T14:21:47;100020.92;;;14.57;100.00
54022;BME280;39936;51.058;17.220;2023-08-06T14:25:45;100008.12;;;14.39;100.00
54022;BME280;39936;51.058;17.220;2023-08-06T14:29:28;100028.46;;;14.55;100.00
54022;BME280;39936;51.058;17.220;2023-08-06T14:33:02;100039.26;;;14.54;100.00
54022;BME280;39936;51.058;17.220;2023-08-06T14:37:05;100039.54;;;14.57;100.00
54022;BME280;39936;51.058;17.220;2023-08-06T14:40:51;100048.10;;;14.55;100.00
54022;BME280;39936;51.058;17.220;2023-08-06T14:44:56;100052.60;;;14.60;100.00
54022;BME280;39936;51.058;17.220;2023-08-06T14:48:23;100050.51;;;14.55;100.00
54022;BME280;39936;51.058;17.220;2023-08-06T14:52:20;100059.80;;;14.59;100.00
54022;BME280;39936;51.058;17.220;2023-08-06T14:56:09;100057.88;;;14.62;100.00
54022;BME280;39936;51.058;17.220;2023-08-06T14:59:40;100052.77;;;14.63;100.00
54022;BME280;39936;51.058;17.220;2023-08-06T15:03:26;100058.59;;;14.68;100.00
54022;BME280;39936;51.058;17.220;2023-08-06T15:07:49;100059.08;;;14.72;100.00
54022;BME280;39936;51.058;17.220;2023-08-06T15:11:44;100064.24;;;14.79;100.00
54022;BME280;39936;51.058;17.220;2023-08-06T15:15:53;100059.82;;;14.58;100.00
54022;BME280;39936;51.058;17.220;2023-08-06T15:19:15;100077.48;;;14.65;100.00
54022;BME280;39936;51.058;17.220;2023-08-06T15:22:30;100075.71;;;14.68;100.00
54022;BME280;39936;51.058;17.220;2023-08-06T15:26:23;100077.86;;;14.62;100.00
54022;BME280;39936;51.058;17.220;2023-08-06T15:29:43;100082.10;;;14.65;100.00
54022;BME280;39936;51.058;17.220;2023-08-06T15:33:22;100088.77;;;14.63;100.00
54022;BME280;39936;51.058;17.220;2023-08-06T15:37:23;100095.07;;;14.61;100.00
54022;BME280;39936;51.058;17.220;2023-08-06T15:40:59;100082.84;;;14.55;100.00
54022;BME280;39936;51.058;17.220;2023-08-06T15:44:42;100093.23;;;14.59;100.00
54022;BME280;39936;51.058;17.220;2023-08-06T15:48:00;100100.48;;;14.54;100.00
54022;BME280;39936;51.058;17.220;2023-08-06T15:51:53;100104.24;;;14.56;100.00
54022;BME280;39936;51.058;17.220;2023-08-06T15:55:11;100103.58;;;14.51;100.00
54022;BME280;39936;51.058;17.220;2023-08-06T15:59:40;100110.61;;;14.50;100.00
54022;BME280;39936;51.058;17.220;2023-08-06T16:03:01;100108.88;;;14.49;100.00
54022;BME280;39936;51.058;17.220;2023-08-06T16:10:43;100111.37;;;14.44;100.00
54022;BME280;39936;51.058;17.220;2023-08-06T16:14:03;100104.78;;;14.47;100.00
54022;BME280;39936;51.058;17.220;2023-08-06T16:17:26;100103.56;;;14.47;100.00
54022;BME280;39936;51.058;17.220;2023-08-06T16:21:14;100106.24;;;14.44;100.00
54022;BME280;39936;51.058;17.220;2023-08-06T16:24:54;100119.52;;;14.44;100.00
54022;BME280;39936;51.058;17.220;2023-08-06T16:28:16;100124.23;;;14.43;100.00
54022;BME280;39936;51.058;17.220;2023-08-06T16:31:45;100134.44;;;14.41;100.00
54022;BME280;39936;51.058;17.220;2023-08-06T16:35:00;100140.17;;;14.37;100.00
54022;BME280;39936;51.058;17.220;2023-08-06T16:38:17;100150.85;;;14.34;100.00
54022;BME280;39936;51.058;17.220;2023-08-06T16:42:10;100146.02;;;14.30;100.00
54022;BME280;39936;51.058;17.220;2023-08-06T16:45:30;100150.59;;;14.31;100.00
54022;BME280;39936;51.058;17.220;2023-08-06T16:49:18;100138.71;;;14.29;100.00
54022;BME280;39936;51.058;17.220;2023-08-06T16:56:54;100152.11;;;14.31;100.00
54022;BME280;39936;51.058;17.220;2023-08-06T17:00:33;100154.16;;;14.29;100.00
54022;BME280;39936;51.058;17.220;2023-08-06T17:04:14;100172.63;;;14.29;100.00
54022;BME280;39936;51.058;17.220;2023-08-06T17:07:29;100187.70;;;14.28;100.00
54022;BME280;39936;51.058;17.220;2023-08-06T17:11:04;100192.19;;;14.28;100.00
54022;BME280;39936;51.058;17.220;2023-08-06T17:14:48;100207.92;;;14.22;100.00
54022;BME280;39936;51.058;17.220;2023-08-06T17:18:04;100217.06;;;14.19;100.00
54022;BME280;39936;51.058;17.220;2023-08-06T17:21:46;100221.76;;;14.22;100.00
54022;BME280;39936;51.058;17.220;2023-08-06T17:25:44;100214.82;;;14.16;100.00
54022;BME280;39936;51.058;17.220;2023-08-06T17:29:24;100221.72;;;14.20;100.00
54022;BME280;39936;51.058;17.220;2023-08-06T17:33:02;100221.97;;;14.20;100.00
54022;BME280;39936;51.058;17.220;2023-08-06T17:36:57;100184.81;;;13.94;100.00
54022;BME280;39936;51.058;17.220;2023-08-06T17:40:54;100203.00;;;14.11;100.00
54022;BME280;39936;51.058;17.220;2023-08-06T17:44:38;100193.30;;;14.12;100.00
54022;BME280;39936;51.058;17.220;2023-08-06T17:48:18;100188.84;;;14.08;100.00
54022;BME280;39936;51.058;17.220;2023-08-06T17:51:49;100190.69;;;14.05;100.00
54022;BME280;39936;51.058;17.220;2023-08-06T17:55:12;100193.48;;;14.02;100.00
54022;BME280;39936;51.058;17.220;2023-08-06T17:58:59;100203.71;;;13.98;100.00
54022;BME280;39936;51.058;17.220;2023-08-06T18:02:38;100198.78;;;13.90;100.00
54022;BME280;39936;51.058;17.220;2023-08-06T18:06:19;100211.05;;;13.92;100.00
54022;BME280;39936;51.058;17.220;2023-08-06T18:14:01;100201.86;;;13.76;100.00
54022;BME280;39936;51.058;17.220;2023-08-06T18:17:57;100199.78;;;13.69;100.00
54022;BME280;39936;51.058;17.220;2023-08-06T18:21:29;100234.22;;;13.85;100.00
54022;BME280;39936;51.058;17.220;2023-08-06T18:25:11;100246.55;;;13.81;100.00
54022;BME280;39936;51.058;17.220;2023-08-06T18:28:50;100255.21;;;13.78;100.00
54022;BME280;39936;51.058;17.220;2023-08-06T18:32:07;100254.59;;;13.76;100.00
54022;BME280;39936;51.058;17.220;2023-08-06T18:35:43;100229.59;;;13.57;100.00
54022;BME280;39936;51.058;17.220;2023-08-06T18:39:10;100256.54;;;13.70;100.00
54022;BME280;39936;51.058;17.220;2023-08-06T18:42:45;100256.52;;;13.68;100.00
54022;BME280;39936;51.058;17.220;2023-08-06T18:46:20;100258.08;;;13.68;100.00
54022;BME280;39936;51.058;17.220;2023-08-06T18:50:21;100260.22;;;13.73;100.00
54022;BME280;39936;51.058;17.220;2023-08-06T18:54:24;100262.24;;;13.72;100.00
54022;BME280;39936;51.058;17.220;2023-08-06T18:58:06;100245.51;;;13.54;100.00
54022;BME280;39936;51.058;17.220;2023-08-06T19:01:55;100265.17;;;13.65;100.00
54022;BME280;39936;51.058;17.220;2023-08-06T19:05:35;100247.63;;;13.55;100.00
54022;BME280;39936;51.058;17.220;2023-08-06T19:09:47;100267.19;;;13.68;100.00
54022;BME280;39936;51.058;17.220;2023-08-06T19:13:41;100259.44;;;13.66;100.00
54022;BME280;39936;51.058;17.220;2023-08-06T19:17:41;100251.24;;;13.72;100.00
54022;BME280;39936;51.058;17.220;2023-08-06T19:21:40;100248.67;;;13.73;100.00
54022;BME280;39936;51.058;17.220;2023-08-06T19:24:52;100243.23;;;13.74;100.00
54022;BME280;39936;51.058;17.220;2023-08-06T19:28:12;100245.94;;;13.70;100.00
54022;BME280;39936;51.058;17.220;2023-08-06T19:31:53;100221.08;;;13.55;100.00
54022;BME280;39936;51.058;17.220;2023-08-06T19:35:13;100250.70;;;13.75;100.00
54022;BME280;39936;51.058;17.220;2023-08-06T19:38:31;100242.81;;;13.77;100.00
54022;BME280;39936;51.058;17.220;2023-08-06T19:42:18;100246.61;;;13.76;100.00
54022;BME280;39936;51.058;17.220;2023-08-06T19:45:55;100230.84;;;13.64;100.00
54022;BME280;39936;51.058;17.220;2023-08-06T19:49:32;100222.45;;;13.54;100.00
54022;BME280;39936;51.058;17.220;2023-08-06T19:52:57;100253.17;;;13.79;100.00
54022;BME280;39936;51.058;17.220;2023-08-06T20:04:23;100250.02;;;13.79;100.00
54022;BME280;39936;51.058;17.220;2023-08-06T20:08:11;100250.13;;;13.80;100.00
54022;BME280;39936;51.058;17.220;2023-08-06T20:12:07;100234.13;;;13.65;100.00
54022;BME280;39936;51.058;17.220;2023-08-06T20:15:37;100232.47;;;13.68;100.00
54022;BME280;39936;51.058;17.220;2023-08-06T20:19:12;100253.41;;;13.84;100.00
54022;BME280;39936;51.058;17.220;2023-08-06T20:22:32;100243.63;;;13.62;100.00
54022;BME280;39936;51.058;17.220;2023-08-06T20:26:18;100261.37;;;13.69;100.00
54022;BME280;39936;51.058;17.220;2023-08-06T20:29:37;100248.88;;;13.66;100.00